Raleigh, NC (27603)

6:48 AM EST on February 07, 2016 (GMT -0500)
Renaissance Park | | Change Station
CLOSE
Current Station
Personal Weather Station
Location: Raleigh, NC
Elevation: 361 ft
Nearby Weather Stations

Elev 361 ft 35.74 °N, 78.66 °W | Updated 3 minutes ago

Mostly Cloudy
Mostly Cloudy
38.1 °F
Feels Like 35 °F
N
4.0
Wind Variable Wind from NNE
Gusts 4.0 mph

Today
High -- | Low -- °F
--% Chance of Precip.
Yesterday
High -- | Low -- °F
Precip. -- in
Pressure 30.12 in
Visibility 10.0 miles
Clouds Overcast 9500 ft
Windchill 35 °F
Dew Point 26 °F
Humidity 62%
Rainfall 0.00 in
Snow Depth Not available.
7:10 AM 5:47 PM
Waning Crescent, 2% visible
METAR KRDU 071051Z 01004KT 10SM OVC095 03/M04 A3012 RMK AO2 SLP199 T00281039 $
Pressure 30.12 in
Visibility 10.0 miles
Clouds Overcast 9500 ft
Windchill 35 °F
Dew Point 26 °F
Humidity 62%
Rainfall 0.00 in
Snow Depth Not available.
7:10 AM 5:47 PM
Waning Crescent, 2% visible
METAR KRDU 071051Z 01004KT 10SM OVC095 03/M04 A3012 RMK AO2 SLP199 T00281039 $

10-Day Weather Forecast

Almanac

Astronomy

Feb. 07, 2016 Rise Set
Actual Time
Civil Twilight
Nautical Twilight
Astronomical Twilight
Moon
Length of Visible Light
Length of Day
Tomorrow will be .
, % of the Moon is Illuminated

Today's Extremes

State Highs State Lows

Community

WunderPhotos

Upload Photos

1,891,182 photos uploaded!

WunderBlog® & News

Nearby

Air Quality

  Air Quality AQ Index Pollutant
Not available.

Snow Depth

Station Depth Elevation

Earthquake Activity

City Distance Mag. Time & Date
Minimum magnitude displayed is 2.5.

Coastal Water Temperatures

Place Temperature

Stations

Nearby Weather Stations

Station Location Temp. Windchill Dew Point Humidity Wind Precip. Elev Updated Type
                   

Watches & Warnings

There are currently no watches in effect.